sensor_id;sensor_type;location;lat;lon;timestamp;P1;durP1;ratioP1;P2;durP2;ratioP2
17169;SDS011;8700;48.222;16.342;2023-08-30T00:02:32;3.58;;;3.38;;
17169;SDS011;8700;48.222;16.342;2023-08-30T00:05:53;3.40;;;3.20;;
17169;SDS011;8700;48.222;16.342;2023-08-30T00:09:15;3.85;;;3.65;;
17169;SDS011;8700;48.222;16.342;2023-08-30T00:12:36;3.95;;;3.53;;
17169;SDS011;8700;48.222;16.342;2023-08-30T00:15:59;3.95;;;3.50;;
17169;SDS011;8700;48.222;16.342;2023-08-30T00:19:21;4.43;;;4.03;;
17169;SDS011;8700;48.222;16.342;2023-08-30T00:22:43;4.45;;;4.25;;
17169;SDS011;8700;48.222;16.342;2023-08-30T00:26:04;3.72;;;3.53;;
17169;SDS011;8700;48.222;16.342;2023-08-30T00:29:25;3.70;;;3.50;;
17169;SDS011;8700;48.222;16.342;2023-08-30T00:32:48;4.63;;;4.32;;
17169;SDS011;8700;48.222;16.342;2023-08-30T00:36:09;3.42;;;3.22;;
17169;SDS011;8700;48.222;16.342;2023-08-30T00:39:30;3.97;;;3.67;;
17169;SDS011;8700;48.222;16.342;2023-08-30T00:42:52;4.43;;;4.18;;
17169;SDS011;8700;48.222;16.342;2023-08-30T00:46:13;4.43;;;4.00;;
17169;SDS011;8700;48.222;16.342;2023-08-30T00:49:36;3.78;;;3.58;;
17169;SDS011;8700;48.222;16.342;2023-08-30T00:52:58;3.83;;;3.63;;
17169;SDS011;8700;48.222;16.342;2023-08-30T00:56:24;4.18;;;3.97;;
17169;SDS011;8700;48.222;16.342;2023-08-30T00:59:47;4.35;;;4.10;;
17169;SDS011;8700;48.222;16.342;2023-08-30T01:03:10;4.07;;;3.85;;
17169;SDS011;8700;48.222;16.342;2023-08-30T01:06:34;3.47;;;3.28;;
17169;SDS011;8700;48.222;16.342;2023-08-30T01:09:55;4.00;;;3.55;;
17169;SDS011;8700;48.222;16.342;2023-08-30T01:13:18;3.97;;;3.72;;
17169;SDS011;8700;48.222;16.342;2023-08-30T01:16:41;3.53;;;3.33;;
17169;SDS011;8700;48.222;16.342;2023-08-30T01:20:04;3.55;;;3.35;;
17169;SDS011;8700;48.222;16.342;2023-08-30T01:23:35;3.60;;;3.40;;
17169;SDS011;8700;48.222;16.342;2023-08-30T01:27:06;3.92;;;3.72;;
17169;SDS011;8700;48.222;16.342;2023-08-30T01:30:29;4.00;;;3.75;;
17169;SDS011;8700;48.222;16.342;2023-08-30T01:33:52;3.72;;;3.53;;
17169;SDS011;8700;48.222;16.342;2023-08-30T01:37:15;4.95;;;3.95;;
17169;SDS011;8700;48.222;16.342;2023-08-30T01:40:38;3.42;;;3.22;;
17169;SDS011;8700;48.222;16.342;2023-08-30T01:44:03;3.38;;;3.17;;
17169;SDS011;8700;48.222;16.342;2023-08-30T01:47:27;4.15;;;3.95;;
17169;SDS011;8700;48.222;16.342;2023-08-30T01:50:49;4.82;;;3.55;;
17169;SDS011;8700;48.222;16.342;2023-08-30T01:54:10;3.83;;;3.60;;
17169;SDS011;8700;48.222;16.342;2023-08-30T01:57:38;4.25;;;3.97;;
17169;SDS011;8700;48.222;16.342;2023-08-30T02:01:01;4.20;;;4.00;;
17169;SDS011;8700;48.222;16.342;2023-08-30T02:04:22;5.10;;;4.80;;
17169;SDS011;8700;48.222;16.342;2023-08-30T02:07:45;4.32;;;4.00;;
17169;SDS011;8700;48.222;16.342;2023-08-30T02:11:13;5.13;;;4.72;;
17169;SDS011;8700;48.222;16.342;2023-08-30T02:14:39;4.53;;;4.22;;
17169;SDS011;8700;48.222;16.342;2023-08-30T02:18:06;4.10;;;3.80;;
17169;SDS011;8700;48.222;16.342;2023-08-30T02:21:28;4.43;;;4.13;;
17169;SDS011;8700;48.222;16.342;2023-08-30T02:24:50;3.63;;;3.42;;
17169;SDS011;8700;48.222;16.342;2023-08-30T02:28:11;4.32;;;4.03;;
17169;SDS011;8700;48.222;16.342;2023-08-30T02:31:32;4.50;;;4.20;;
17169;SDS011;8700;48.222;16.342;2023-08-30T02:34:55;3.92;;;3.72;;
17169;SDS011;8700;48.222;16.342;2023-08-30T02:38:17;4.25;;;3.97;;
17169;SDS011;8700;48.222;16.342;2023-08-30T02:41:38;3.92;;;3.63;;
17169;SDS011;8700;48.222;16.342;2023-08-30T02:45:00;3.80;;;3.55;;
17169;SDS011;8700;48.222;16.342;2023-08-30T02:48:21;4.72;;;4.43;;
17169;SDS011;8700;48.222;16.342;2023-08-30T02:51:44;4.38;;;4.00;;
17169;SDS011;8700;48.222;16.342;2023-08-30T02:55:05;4.22;;;3.97;;
17169;SDS011;8700;48.222;16.342;2023-08-30T02:58:27;5.45;;;5.05;;
17169;SDS011;8700;48.222;16.342;2023-08-30T03:01:48;4.20;;;3.90;;
17169;SDS011;8700;48.222;16.342;2023-08-30T03:05:09;4.30;;;4.00;;
17169;SDS011;8700;48.222;16.342;2023-08-30T03:08:32;4.70;;;4.40;;
17169;SDS011;8700;48.222;16.342;2023-08-30T03:11:54;3.95;;;3.75;;
17169;SDS011;8700;48.222;16.342;2023-08-30T03:15:15;4.25;;;3.85;;
17169;SDS011;8700;48.222;16.342;2023-08-30T03:18:36;3.72;;;3.53;;
17169;SDS011;8700;48.222;16.342;2023-08-30T03:21:58;3.88;;;3.67;;
17169;SDS011;8700;48.222;16.342;2023-08-30T03:25:21;3.60;;;3.40;;
17169;SDS011;8700;48.222;16.342;2023-08-30T03:28:42;3.38;;;3.17;;
17169;SDS011;8700;48.222;16.342;2023-08-30T03:32:04;4.22;;;3.92;;
17169;SDS011;8700;48.222;16.342;2023-08-30T03:35:26;3.97;;;3.78;;
17169;SDS011;8700;48.222;16.342;2023-08-30T03:38:47;3.35;;;3.15;;
17169;SDS011;8700;48.222;16.342;2023-08-30T03:42:10;4.40;;;4.05;;
17169;SDS011;8700;48.222;16.342;2023-08-30T03:45:33;4.85;;;4.45;;
17169;SDS011;8700;48.222;16.342;2023-08-30T03:48:55;3.70;;;3.50;;
17169;SDS011;8700;48.222;16.342;2023-08-30T03:52:16;4.00;;;3.72;;
17169;SDS011;8700;48.222;16.342;2023-08-30T03:55:37;3.90;;;3.60;;
17169;SDS011;8700;48.222;16.342;2023-08-30T03:59:01;4.50;;;4.05;;
17169;SDS011;8700;48.222;16.342;2023-08-30T04:02:22;13.68;;;12.35;;
17169;SDS011;8700;48.222;16.342;2023-08-30T04:05:45;6.78;;;6.25;;
17169;SDS011;8700;48.222;16.342;2023-08-30T04:09:06;4.82;;;4.55;;
17169;SDS011;8700;48.222;16.342;2023-08-30T04:12:28;4.28;;;4.03;;
17169;SDS011;8700;48.222;16.342;2023-08-30T04:15:50;4.75;;;4.45;;
17169;SDS011;8700;48.222;16.342;2023-08-30T04:19:12;4.75;;;4.45;;
17169;SDS011;8700;48.222;16.342;2023-08-30T04:22:34;10.15;;;9.45;;
17169;SDS011;8700;48.222;16.342;2023-08-30T04:25:55;6.65;;;4.47;;
17169;SDS011;8700;48.222;16.342;2023-08-30T04:29:17;5.50;;;5.10;;
17169;SDS011;8700;48.222;16.342;2023-08-30T04:32:39;4.68;;;4.38;;
17169;SDS011;8700;48.222;16.342;2023-08-30T04:36:00;5.82;;;5.43;;
17169;SDS011;8700;48.222;16.342;2023-08-30T04:39:23;5.75;;;5.45;;
17169;SDS011;8700;48.222;16.342;2023-08-30T04:42:44;5.20;;;4.90;;
17169;SDS011;8700;48.222;16.342;2023-08-30T04:46:05;5.93;;;5.55;;
17169;SDS011;8700;48.222;16.342;2023-08-30T04:49:28;6.97;;;6.47;;
17169;SDS011;8700;48.222;16.342;2023-08-30T04:52:49;6.80;;;6.20;;
17169;SDS011;8700;48.222;16.342;2023-08-30T04:56:11;7.22;;;6.72;;
17169;SDS011;8700;48.222;16.342;2023-08-30T04:59:33;12.50;;;11.43;;
17169;SDS011;8700;48.222;16.342;2023-08-30T05:02:54;6.10;;;5.70;;
17169;SDS011;8700;48.222;16.342;2023-08-30T05:06:17;6.72;;;6.32;;
17169;SDS011;8700;48.222;16.342;2023-08-30T05:09:38;6.60;;;6.10;;
17169;SDS011;8700;48.222;16.342;2023-08-30T05:13:00;6.15;;;5.65;;
17169;SDS011;8700;48.222;16.342;2023-08-30T05:16:22;6.50;;;6.10;;
17169;SDS011;8700;48.222;16.342;2023-08-30T05:19:43;6.43;;;5.93;;
17169;SDS011;8700;48.222;16.342;2023-08-30T05:23:06;7.18;;;6.30;;
17169;SDS011;8700;48.222;16.342;2023-08-30T05:26:27;6.68;;;6.10;;
17169;SDS011;8700;48.222;16.342;2023-08-30T05:29:49;7.35;;;6.78;;
17169;SDS011;8700;48.222;16.342;2023-08-30T05:33:10;7.88;;;7.20;;
17169;SDS011;8700;48.222;16.342;2023-08-30T05:36:32;9.32;;;8.52;;
17169;SDS011;8700;48.222;16.342;2023-08-30T05:39:54;7.43;;;6.82;;
17169;SDS011;8700;48.222;16.342;2023-08-30T05:43:17;6.45;;;5.95;;
17169;SDS011;8700;48.222;16.342;2023-08-30T05:46:38;7.32;;;6.68;;
17169;SDS011;8700;48.222;16.342;2023-08-30T05:49:59;7.05;;;6.55;;
17169;SDS011;8700;48.222;16.342;2023-08-30T05:53:21;8.45;;;7.72;;
17169;SDS011;8700;48.222;16.342;2023-08-30T05:56:44;7.10;;;6.43;;
17169;SDS011;8700;48.222;16.342;2023-08-30T06:00:06;6.93;;;6.43;;
17169;SDS011;8700;48.222;16.342;2023-08-30T06:03:28;6.93;;;6.40;;
17169;SDS011;8700;48.222;16.342;2023-08-30T06:06:49;6.88;;;6.38;;
17169;SDS011;8700;48.222;16.342;2023-08-30T06:10:10;6.70;;;6.22;;
17169;SDS011;8700;48.222;16.342;2023-08-30T06:13:33;7.20;;;6.65;;
17169;SDS011;8700;48.222;16.342;2023-08-30T06:16:54;8.45;;;7.75;;
17169;SDS011;8700;48.222;16.342;2023-08-30T06:20:15;7.65;;;7.15;;
17169;SDS011;8700;48.222;16.342;2023-08-30T06:23:37;7.03;;;6.53;;
17169;SDS011;8700;48.222;16.342;2023-08-30T06:26:59;5.65;;;5.25;;
17169;SDS011;8700;48.222;16.342;2023-08-30T06:30:21;6.88;;;6.38;;
17169;SDS011;8700;48.222;16.342;2023-08-30T06:33:42;6.45;;;5.95;;
17169;SDS011;8700;48.222;16.342;2023-08-30T06:37:04;5.47;;;4.97;;
17169;SDS011;8700;48.222;16.342;2023-08-30T06:40:25;6.65;;;6.13;;
17169;SDS011;8700;48.222;16.342;2023-08-30T06:43:46;5.28;;;4.97;;
17169;SDS011;8700;48.222;16.342;2023-08-30T06:47:09;6.07;;;5.68;;
17169;SDS011;8700;48.222;16.342;2023-08-30T06:50:30;5.53;;;5.22;;
17169;SDS011;8700;48.222;16.342;2023-08-30T06:53:51;6.72;;;6.25;;
17169;SDS011;8700;48.222;16.342;2023-08-30T06:57:14;6.53;;;5.90;;
17169;SDS011;8700;48.222;16.342;2023-08-30T07:00:35;5.20;;;4.90;;
17169;SDS011;8700;48.222;16.342;2023-08-30T07:03:58;6.05;;;5.68;;
17169;SDS011;8700;48.222;16.342;2023-08-30T07:07:19;5.20;;;4.72;;
17169;SDS011;8700;48.222;16.342;2023-08-30T07:10:40;5.63;;;5.22;;
17169;SDS011;8700;48.222;16.342;2023-08-30T07:14:02;5.10;;;4.43;;
17169;SDS011;8700;48.222;16.342;2023-08-30T07:17:25;4.95;;;4.60;;
17169;SDS011;8700;48.222;16.342;2023-08-30T07:20:48;6.38;;;5.72;;
17169;SDS011;8700;48.222;16.342;2023-08-30T07:24:09;5.28;;;4.93;;
17169;SDS011;8700;48.222;16.342;2023-08-30T07:27:30;7.85;;;7.22;;
17169;SDS011;8700;48.222;16.342;2023-08-30T07:30:52;4.78;;;4.47;;
17169;SDS011;8700;48.222;16.342;2023-08-30T07:34:21;4.95;;;4.65;;
17169;SDS011;8700;48.222;16.342;2023-08-30T07:37:44;4.05;;;3.75;;
17169;SDS011;8700;48.222;16.342;2023-08-30T07:41:05;4.78;;;4.47;;
17169;SDS011;8700;48.222;16.342;2023-08-30T07:44:26;3.80;;;3.60;;
17169;SDS011;8700;48.222;16.342;2023-08-30T07:47:48;3.70;;;3.50;;
17169;SDS011;8700;48.222;16.342;2023-08-30T07:51:09;7.18;;;6.70;;
17169;SDS011;8700;48.222;16.342;2023-08-30T07:54:31;3.80;;;3.50;;
17169;SDS011;8700;48.222;16.342;2023-08-30T07:57:53;4.13;;;3.83;;
17169;SDS011;8700;48.222;16.342;2023-08-30T08:01:14;3.65;;;3.35;;
17169;SDS011;8700;48.222;16.342;2023-08-30T08:04:37;3.58;;;3.38;;
17169;SDS011;8700;48.222;16.342;2023-08-30T08:07:59;3.38;;;3.17;;
17169;SDS011;8700;48.222;16.342;2023-08-30T08:11:23;3.58;;;3.28;;
17169;SDS011;8700;48.222;16.342;2023-08-30T08:14:44;3.95;;;3.65;;
17169;SDS011;8700;48.222;16.342;2023-08-30T08:18:06;4.25;;;4.05;;
17169;SDS011;8700;48.222;16.342;2023-08-30T08:21:30;3.92;;;3.67;;
17169;SDS011;8700;48.222;16.342;2023-08-30T08:24:51;3.72;;;3.53;;
17169;SDS011;8700;48.222;16.342;2023-08-30T08:28:17;3.10;;;2.90;;
17169;SDS011;8700;48.222;16.342;2023-08-30T08:31:39;3.45;;;3.25;;
17169;SDS011;8700;48.222;16.342;2023-08-30T08:35:00;3.20;;;3.00;;
17169;SDS011;8700;48.222;16.342;2023-08-30T08:38:22;3.58;;;3.35;;
17169;SDS011;8700;48.222;16.342;2023-08-30T08:41:43;3.97;;;3.67;;
17169;SDS011;8700;48.222;16.342;2023-08-30T08:45:07;3.33;;;3.10;;
17169;SDS011;8700;48.222;16.342;2023-08-30T08:48:31;3.65;;;3.25;;
17169;SDS011;8700;48.222;16.342;2023-08-30T08:51:54;7.28;;;6.78;;
17169;SDS011;8700;48.222;16.342;2023-08-30T08:55:15;3.45;;;3.25;;
17169;SDS011;8700;48.222;16.342;2023-08-30T08:58:38;9.82;;;4.97;;
17169;SDS011;8700;48.222;16.342;2023-08-30T09:02:00;2.75;;;2.58;;
17169;SDS011;8700;48.222;16.342;2023-08-30T09:05:22;2.17;;;2.03;;
17169;SDS011;8700;48.222;16.342;2023-08-30T09:08:43;4.53;;;4.22;;
17169;SDS011;8700;48.222;16.342;2023-08-30T09:12:05;2.90;;;2.70;;
17169;SDS011;8700;48.222;16.342;2023-08-30T09:15:30;2.92;;;2.78;;
17169;SDS011;8700;48.222;16.342;2023-08-30T09:19:00;4.82;;;3.13;;
17169;SDS011;8700;48.222;16.342;2023-08-30T09:22:22;3.65;;;3.35;;
17169;SDS011;8700;48.222;16.342;2023-08-30T09:25:44;2.42;;;2.22;;
17169;SDS011;8700;48.222;16.342;2023-08-30T09:29:06;2.60;;;2.47;;
17169;SDS011;8700;48.222;16.342;2023-08-30T09:32:29;2.85;;;2.70;;
17169;SDS011;8700;48.222;16.342;2023-08-30T09:35:51;2.85;;;2.65;;
17169;SDS011;8700;48.222;16.342;2023-08-30T09:39:13;2.85;;;2.75;;
17169;SDS011;8700;48.222;16.342;2023-08-30T09:42:35;2.33;;;2.22;;
17169;SDS011;8700;48.222;16.342;2023-08-30T09:46:03;2.53;;;2.42;;
17169;SDS011;8700;48.222;16.342;2023-08-30T09:49:25;3.25;;;2.95;;
17169;SDS011;8700;48.222;16.342;2023-08-30T09:52:48;2.45;;;2.35;;
17169;SDS011;8700;48.222;16.342;2023-08-30T09:56:11;2.20;;;2.10;;
17169;SDS011;8700;48.222;16.342;2023-08-30T09:59:34;2.40;;;2.30;;
17169;SDS011;8700;48.222;16.342;2023-08-30T10:02:58;2.90;;;2.70;;
17169;SDS011;8700;48.222;16.342;2023-08-30T10:06:19;2.20;;;2.10;;
17169;SDS011;8700;48.222;16.342;2023-08-30T10:09:43;2.95;;;2.75;;
17169;SDS011;8700;48.222;16.342;2023-08-30T10:13:06;2.67;;;2.47;;
17169;SDS011;8700;48.222;16.342;2023-08-30T10:16:27;2.88;;;2.67;;
17169;SDS011;8700;48.222;16.342;2023-08-30T10:19:56;2.83;;;2.72;;
17169;SDS011;8700;48.222;16.342;2023-08-30T10:23:18;2.50;;;2.40;;
17169;SDS011;8700;48.222;16.342;2023-08-30T10:26:42;2.78;;;2.58;;
17169;SDS011;8700;48.222;16.342;2023-08-30T10:30:06;2.10;;;2.00;;
17169;SDS011;8700;48.222;16.342;2023-08-30T10:33:31;1.95;;;1.85;;
17169;SDS011;8700;48.222;16.342;2023-08-30T10:36:58;2.35;;;2.25;;
17169;SDS011;8700;48.222;16.342;2023-08-30T10:40:21;2.30;;;2.15;;
17169;SDS011;8700;48.222;16.342;2023-08-30T10:43:43;2.42;;;2.33;;
17169;SDS011;8700;48.222;16.342;2023-08-30T10:47:17;2.10;;;2.00;;
17169;SDS011;8700;48.222;16.342;2023-08-30T10:50:39;2.17;;;2.08;;
17169;SDS011;8700;48.222;16.342;2023-08-30T10:54:00;2.15;;;2.05;;
17169;SDS011;8700;48.222;16.342;2023-08-30T10:57:24;2.50;;;2.40;;
17169;SDS011;8700;48.222;16.342;2023-08-30T11:00:47;2.17;;;1.90;;
17169;SDS011;8700;48.222;16.342;2023-08-30T11:04:08;2.47;;;2.33;;
17169;SDS011;8700;48.222;16.342;2023-08-30T11:07:30;2.30;;;2.20;;
17169;SDS011;8700;48.222;16.342;2023-08-30T11:10:59;2.17;;;2.08;;
17169;SDS011;8700;48.222;16.342;2023-08-30T11:14:23;2.78;;;2.28;;
17169;SDS011;8700;48.222;16.342;2023-08-30T11:17:48;3.17;;;2.97;;
17169;SDS011;8700;48.222;16.342;2023-08-30T11:21:10;3.45;;;3.25;;
17169;SDS011;8700;48.222;16.342;2023-08-30T11:24:33;2.47;;;2.38;;
17169;SDS011;8700;48.222;16.342;2023-08-30T11:28:01;2.10;;;2.00;;
17169;SDS011;8700;48.222;16.342;2023-08-30T11:31:23;2.35;;;2.25;;
17169;SDS011;8700;48.222;16.342;2023-08-30T11:34:56;2.25;;;2.13;;
17169;SDS011;8700;48.222;16.342;2023-08-30T11:38:18;6.97;;;6.40;;
17169;SDS011;8700;48.222;16.342;2023-08-30T11:41:40;3.08;;;2.88;;
17169;SDS011;8700;48.222;16.342;2023-08-30T11:45:03;3.00;;;2.80;;
17169;SDS011;8700;48.222;16.342;2023-08-30T11:48:25;3.17;;;3.08;;
17169;SDS011;8700;48.222;16.342;2023-08-30T11:51:49;3.58;;;3.28;;
17169;SDS011;8700;48.222;16.342;2023-08-30T11:55:12;4.15;;;3.75;;
17169;SDS011;8700;48.222;16.342;2023-08-30T11:58:34;4.35;;;3.97;;
17169;SDS011;8700;48.222;16.342;2023-08-30T12:01:56;3.75;;;3.50;;
17169;SDS011;8700;48.222;16.342;2023-08-30T12:05:17;3.22;;;3.05;;
17169;SDS011;8700;48.222;16.342;2023-08-30T12:08:40;2.83;;;2.63;;
17169;SDS011;8700;48.222;16.342;2023-08-30T12:12:09;3.22;;;3.08;;
17169;SDS011;8700;48.222;16.342;2023-08-30T12:15:31;3.30;;;3.10;;
17169;SDS011;8700;48.222;16.342;2023-08-30T12:18:53;2.25;;;2.15;;
17169;SDS011;8700;48.222;16.342;2023-08-30T12:22:15;3.35;;;3.15;;
17169;SDS011;8700;48.222;16.342;2023-08-30T12:25:37;2.67;;;2.58;;
17169;SDS011;8700;48.222;16.342;2023-08-30T12:28:58;3.75;;;3.55;;
17169;SDS011;8700;48.222;16.342;2023-08-30T12:32:19;4.40;;;3.28;;
17169;SDS011;8700;48.222;16.342;2023-08-30T12:35:41;3.13;;;2.53;;
17169;SDS011;8700;48.222;16.342;2023-08-30T12:39:02;3.42;;;3.22;;
17169;SDS011;8700;48.222;16.342;2023-08-30T12:42:26;8.35;;;7.53;;
17169;SDS011;8700;48.222;16.342;2023-08-30T12:45:47;3.30;;;3.10;;
17169;SDS011;8700;48.222;16.342;2023-08-30T12:49:09;3.65;;;3.45;;
17169;SDS011;8700;48.222;16.342;2023-08-30T12:52:30;4.03;;;3.72;;
17169;SDS011;8700;48.222;16.342;2023-08-30T12:55:51;3.83;;;3.53;;
17169;SDS011;8700;48.222;16.342;2023-08-30T12:59:16;2.58;;;2.47;;
17169;SDS011;8700;48.222;16.342;2023-08-30T13:02:40;4.10;;;2.97;;
17169;SDS011;8700;48.222;16.342;2023-08-30T13:06:04;3.92;;;3.25;;
17169;SDS011;8700;48.222;16.342;2023-08-30T13:09:26;3.15;;;2.92;;
17169;SDS011;8700;48.222;16.342;2023-08-30T13:12:47;3.90;;;3.60;;
17169;SDS011;8700;48.222;16.342;2023-08-30T13:16:10;4.40;;;4.03;;
17169;SDS011;8700;48.222;16.342;2023-08-30T13:19:31;3.53;;;3.33;;
17169;SDS011;8700;48.222;16.342;2023-08-30T13:22:52;3.20;;;3.00;;
17169;SDS011;8700;48.222;16.342;2023-08-30T13:26:14;3.95;;;2.85;;
17169;SDS011;8700;48.222;16.342;2023-08-30T13:29:35;3.45;;;3.25;;
17169;SDS011;8700;48.222;16.342;2023-08-30T13:32:58;3.63;;;3.42;;
17169;SDS011;8700;48.222;16.342;2023-08-30T13:36:19;2.88;;;2.67;;
17169;SDS011;8700;48.222;16.342;2023-08-30T13:39:40;3.40;;;3.17;;
17169;SDS011;8700;48.222;16.342;2023-08-30T13:43:01;3.00;;;2.85;;
17169;SDS011;8700;48.222;16.342;2023-08-30T13:46:22;3.35;;;3.15;;
17169;SDS011;8700;48.222;16.342;2023-08-30T13:49:45;4.00;;;3.80;;
17169;SDS011;8700;48.222;16.342;2023-08-30T13:53:06;3.80;;;3.58;;
17169;SDS011;8700;48.222;16.342;2023-08-30T13:56:27;3.10;;;2.90;;
17169;SDS011;8700;48.222;16.342;2023-08-30T13:59:49;2.85;;;2.70;;
17169;SDS011;8700;48.222;16.342;2023-08-30T14:03:10;2.60;;;2.50;;
17169;SDS011;8700;48.222;16.342;2023-08-30T14:06:33;2.85;;;2.75;;
17169;SDS011;8700;48.222;16.342;2023-08-30T14:09:54;2.75;;;2.65;;
17169;SDS011;8700;48.222;16.342;2023-08-30T14:13:15;3.63;;;3.42;;
17169;SDS011;8700;48.222;16.342;2023-08-30T14:16:37;3.88;;;2.40;;
17169;SDS011;8700;48.222;16.342;2023-08-30T14:19:58;3.00;;;2.80;;
17169;SDS011;8700;48.222;16.342;2023-08-30T14:23:20;4.00;;;3.65;;
17169;SDS011;8700;48.222;16.342;2023-08-30T14:26:42;2.70;;;2.50;;
17169;SDS011;8700;48.222;16.342;2023-08-30T14:30:05;2.35;;;2.25;;
17169;SDS011;8700;48.222;16.342;2023-08-30T14:33:27;2.97;;;2.78;;
17169;SDS011;8700;48.222;16.342;2023-08-30T14:36:48;2.70;;;2.50;;
17169;SDS011;8700;48.222;16.342;2023-08-30T14:40:11;2.97;;;2.83;;
17169;SDS011;8700;48.222;16.342;2023-08-30T14:43:33;4.78;;;2.95;;
17169;SDS011;8700;48.222;16.342;2023-08-30T14:46:54;3.53;;;3.28;;
17169;SDS011;8700;48.222;16.342;2023-08-30T14:50:16;3.25;;;3.08;;
17169;SDS011;8700;48.222;16.342;2023-08-30T14:53:37;4.10;;;3.90;;
17169;SDS011;8700;48.222;16.342;2023-08-30T14:57:00;3.13;;;2.83;;
17169;SDS011;8700;48.222;16.342;2023-08-30T15:00:21;3.58;;;3.38;;
17169;SDS011;8700;48.222;16.342;2023-08-30T15:03:42;3.63;;;3.33;;
17169;SDS011;8700;48.222;16.342;2023-08-30T15:07:04;3.08;;;2.88;;
17169;SDS011;8700;48.222;16.342;2023-08-30T15:10:25;4.72;;;3.25;;
17169;SDS011;8700;48.222;16.342;2023-08-30T15:13:48;4.15;;;3.88;;
17169;SDS011;8700;48.222;16.342;2023-08-30T15:17:09;3.28;;;3.08;;
17169;SDS011;8700;48.222;16.342;2023-08-30T15:20:30;3.00;;;2.80;;
17169;SDS011;8700;48.222;16.342;2023-08-30T15:23:51;4.13;;;3.10;;
17169;SDS011;8700;48.222;16.342;2023-08-30T15:27:13;2.95;;;2.75;;
17169;SDS011;8700;48.222;16.342;2023-08-30T15:30:35;3.00;;;2.80;;
17169;SDS011;8700;48.222;16.342;2023-08-30T15:33:57;3.83;;;3.63;;
17169;SDS011;8700;48.222;16.342;2023-08-30T15:37:18;4.63;;;4.40;;
17169;SDS011;8700;48.222;16.342;2023-08-30T15:40:39;3.42;;;3.22;;
17169;SDS011;8700;48.222;16.342;2023-08-30T15:44:00;3.38;;;3.17;;
17169;SDS011;8700;48.222;16.342;2023-08-30T15:47:23;4.32;;;4.03;;
17169;SDS011;8700;48.222;16.342;2023-08-30T15:50:44;4.75;;;4.45;;
17169;SDS011;8700;48.222;16.342;2023-08-30T15:54:06;3.78;;;3.58;;
17169;SDS011;8700;48.222;16.342;2023-08-30T15:57:28;3.53;;;3.33;;
17169;SDS011;8700;48.222;16.342;2023-08-30T16:00:50;3.65;;;3.45;;
17169;SDS011;8700;48.222;16.342;2023-08-30T16:04:12;3.50;;;3.30;;
17169;SDS011;8700;48.222;16.342;2023-08-30T16:07:33;4.47;;;4.00;;
17169;SDS011;8700;48.222;16.342;2023-08-30T16:10:55;4.03;;;3.75;;
17169;SDS011;8700;48.222;16.342;2023-08-30T16:14:16;4.40;;;4.10;;
17169;SDS011;8700;48.222;16.342;2023-08-30T16:17:37;5.50;;;5.00;;
17169;SDS011;8700;48.222;16.342;2023-08-30T16:21:00;4.25;;;4.05;;
17169;SDS011;8700;48.222;16.342;2023-08-30T16:24:21;6.43;;;5.78;;
17169;SDS011;8700;48.222;16.342;2023-08-30T16:27:45;5.60;;;5.10;;
17169;SDS011;8700;48.222;16.342;2023-08-30T16:31:10;3.97;;;3.63;;
17169;SDS011;8700;48.222;16.342;2023-08-30T16:34:32;11.80;;;10.63;;
17169;SDS011;8700;48.222;16.342;2023-08-30T16:37:54;4.53;;;4.22;;
17169;SDS011;8700;48.222;16.342;2023-08-30T16:41:16;5.80;;;5.38;;
17169;SDS011;8700;48.222;16.342;2023-08-30T16:44:37;4.65;;;4.28;;
17169;SDS011;8700;48.222;16.342;2023-08-30T16:47:58;5.25;;;4.93;;
17169;SDS011;8700;48.222;16.342;2023-08-30T16:51:19;4.82;;;4.15;;
17169;SDS011;8700;48.222;16.342;2023-08-30T16:54:42;4.35;;;4.10;;
17169;SDS011;8700;48.222;16.342;2023-08-30T16:58:04;4.68;;;4.10;;
17169;SDS011;8700;48.222;16.342;2023-08-30T17:01:25;4.03;;;3.72;;
17169;SDS011;8700;48.222;16.342;2023-08-30T17:04:46;3.78;;;3.50;;
17169;SDS011;8700;48.222;16.342;2023-08-30T17:08:08;3.92;;;3.72;;
17169;SDS011;8700;48.222;16.342;2023-08-30T17:11:30;3.63;;;3.38;;
17169;SDS011;8700;48.222;16.342;2023-08-30T17:14:53;3.88;;;3.58;;
17169;SDS011;8700;48.222;16.342;2023-08-30T17:18:14;3.80;;;3.50;;
17169;SDS011;8700;48.222;16.342;2023-08-30T17:21:35;3.42;;;3.22;;
17169;SDS011;8700;48.222;16.342;2023-08-30T17:24:56;3.53;;;3.22;;
17169;SDS011;8700;48.222;16.342;2023-08-30T17:28:20;3.63;;;3.42;;
17169;SDS011;8700;48.222;16.342;2023-08-30T17:31:42;3.22;;;3.00;;
17169;SDS011;8700;48.222;16.342;2023-08-30T17:35:04;3.55;;;3.35;;
17169;SDS011;8700;48.222;16.342;2023-08-30T17:38:26;4.30;;;4.00;;
17169;SDS011;8700;48.222;16.342;2023-08-30T17:41:47;3.53;;;3.33;;
17169;SDS011;8700;48.222;16.342;2023-08-30T17:45:10;4.07;;;3.88;;
17169;SDS011;8700;48.222;16.342;2023-08-30T17:48:31;4.20;;;4.00;;
17169;SDS011;8700;48.222;16.342;2023-08-30T17:51:53;4.90;;;4.60;;
17169;SDS011;8700;48.222;16.342;2023-08-30T17:55:14;4.78;;;4.47;;
17169;SDS011;8700;48.222;16.342;2023-08-30T17:58:36;4.47;;;4.18;;
17169;SDS011;8700;48.222;16.342;2023-08-30T18:01:59;4.90;;;4.60;;
17169;SDS011;8700;48.222;16.342;2023-08-30T18:05:20;4.93;;;4.63;;
17169;SDS011;8700;48.222;16.342;2023-08-30T18:08:42;4.88;;;4.57;;
17169;SDS011;8700;48.222;16.342;2023-08-30T18:12:04;4.15;;;3.85;;
17169;SDS011;8700;48.222;16.342;2023-08-30T18:15:27;4.63;;;4.32;;
17169;SDS011;8700;48.222;16.342;2023-08-30T18:18:49;4.50;;;4.18;;
17169;SDS011;8700;48.222;16.342;2023-08-30T18:22:11;4.25;;;3.95;;
17169;SDS011;8700;48.222;16.342;2023-08-30T18:25:32;4.50;;;4.10;;
17169;SDS011;8700;48.222;16.342;2023-08-30T18:28:53;4.00;;;3.70;;
17169;SDS011;8700;48.222;16.342;2023-08-30T18:32:17;3.25;;;3.05;;
17169;SDS011;8700;48.222;16.342;2023-08-30T18:35:40;4.40;;;4.10;;
17169;SDS011;8700;48.222;16.342;2023-08-30T18:39:01;4.32;;;4.03;;
17169;SDS011;8700;48.222;16.342;2023-08-30T18:42:24;4.80;;;4.50;;
17169;SDS011;8700;48.222;16.342;2023-08-30T18:45:47;3.95;;;3.65;;
17169;SDS011;8700;48.222;16.342;2023-08-30T18:49:08;4.32;;;3.92;;
17169;SDS011;8700;48.222;16.342;2023-08-30T18:52:31;3.70;;;3.45;;
17169;SDS011;8700;48.222;16.342;2023-08-30T18:55:52;5.18;;;4.68;;
17169;SDS011;8700;48.222;16.342;2023-08-30T18:59:13;4.35;;;3.97;;
17169;SDS011;8700;48.222;16.342;2023-08-30T19:02:35;5.32;;;4.93;;
17169;SDS011;8700;48.222;16.342;2023-08-30T19:05:56;4.15;;;3.95;;
17169;SDS011;8700;48.222;16.342;2023-08-30T19:09:19;3.70;;;3.50;;
17169;SDS011;8700;48.222;16.342;2023-08-30T19:12:39;3.22;;;3.03;;
17169;SDS011;8700;48.222;16.342;2023-08-30T19:16:01;4.20;;;3.88;;
17169;SDS011;8700;48.222;16.342;2023-08-30T19:19:22;4.53;;;4.22;;
17169;SDS011;8700;48.222;16.342;2023-08-30T19:22:46;4.65;;;4.35;;
17169;SDS011;8700;48.222;16.342;2023-08-30T19:26:09;3.83;;;3.63;;
17169;SDS011;8700;48.222;16.342;2023-08-30T19:29:30;5.05;;;4.75;;
17169;SDS011;8700;48.222;16.342;2023-08-30T19:32:51;5.25;;;4.78;;
17169;SDS011;8700;48.222;16.342;2023-08-30T19:36:13;4.40;;;4.10;;
17169;SDS011;8700;48.222;16.342;2023-08-30T19:39:37;5.65;;;5.03;;
17169;SDS011;8700;48.222;16.342;2023-08-30T19:43:00;4.90;;;4.60;;
17169;SDS011;8700;48.222;16.342;2023-08-30T19:46:21;4.50;;;4.10;;
17169;SDS011;8700;48.222;16.342;2023-08-30T19:49:43;4.95;;;4.65;;
17169;SDS011;8700;48.222;16.342;2023-08-30T19:53:04;5.07;;;4.78;;
17169;SDS011;8700;48.222;16.342;2023-08-30T19:56:25;4.20;;;3.90;;
17169;SDS011;8700;48.222;16.342;2023-08-30T19:59:47;4.90;;;4.53;;
17169;SDS011;8700;48.222;16.342;2023-08-30T20:03:09;5.10;;;4.70;;
17169;SDS011;8700;48.222;16.342;2023-08-30T20:06:32;4.57;;;4.20;;
17169;SDS011;8700;48.222;16.342;2023-08-30T20:09:54;5.03;;;4.60;;
17169;SDS011;8700;48.222;16.342;2023-08-30T20:13:17;4.47;;;4.18;;
17169;SDS011;8700;48.222;16.342;2023-08-30T20:16:42;5.20;;;4.85;;
17169;SDS011;8700;48.222;16.342;2023-08-30T20:20:06;4.05;;;3.75;;